Time;durP1;ratioP1;P1;durP2;ratioP2;P2;SDS_P1;SDS_P2;PMS_P1;PMS_P2;Temp;Humidity;BMP_temperature;BMP_pressure;BME280_temperature;BME280_humidity;BME280_pressure;Samples;Min_cycle;Max_cycle;Signal;HPM_P1;HPM_P2
2023/06/02 00:01:09;;;;;;;5.87;4.80;;;;;;;;;;5041349;28;20237;-85
2023/06/02 00:03:37;;;;;;;5.67;5.13;;;;;;;;;;5042531;28;20213;-85
2023/06/02 00:06:05;;;;;;;5.30;4.80;;;;;;;;;;5041283;28;20739;-85
2023/06/02 00:08:33;;;;;;;6.47;4.97;;;;;;;;;;5033791;28;20241;-85
2023/06/02 00:11:01;;;;;;;7.10;4.80;;;;;;;;;;5038628;28;20223;-85
2023/06/02 00:13:28;;;;;;;5.80;5.20;;;;;;;;;;5053487;28;20240;-85
2023/06/02 00:15:56;;;;;;;6.10;4.83;;;;;;;;;;5026772;28;20231;-83
2023/06/02 00:18:24;;;;;;;7.30;5.70;;;;;;;;;;5041710;28;20225;-85
2023/06/02 00:20:51;;;;;;;6.47;5.20;;;;;;;;;;5030411;28;20315;-85
2023/06/02 00:23:19;;;;;;;7.73;5.03;;;;;;;;;;5024753;28;20199;-84
2023/06/02 00:25:46;;;;;;;7.17;5.10;;;;;;;;;;5040019;28;20281;-85
2023/06/02 00:28:15;;;;;;;5.60;4.90;;;;;;;;;;5040261;28;20213;-85
2023/06/02 00:30:42;;;;;;;5.77;5.00;;;;;;;;;;5048157;28;20230;-86
2023/06/02 00:33:09;;;;;;;6.40;5.33;;;;;;;;;;5025238;28;20210;-86
2023/06/02 00:35:36;;;;;;;5.53;4.90;;;;;;;;;;5032803;28;20321;-85
2023/06/02 00:38:04;;;;;;;6.07;4.97;;;;;;;;;;5041421;28;20226;-85
2023/06/02 00:40:32;;;;;;;6.50;5.57;;;;;;;;;;5032759;28;20248;-87
2023/06/02 00:43:00;;;;;;;5.60;5.07;;;;;;;;;;5042289;28;20654;-86
2023/06/02 00:45:28;;;;;;;6.00;5.27;;;;;;;;;;5036602;28;20234;-86
2023/06/02 00:47:56;;;;;;;6.57;5.20;;;;;;;;;;5026431;28;20569;-85
2023/06/02 00:50:25;;;;;;;6.43;5.17;;;;;;;;;;5040061;28;20235;-85
2023/06/02 00:52:53;;;;;;;5.40;4.90;;;;;;;;;;5026982;28;20203;-86
2023/06/02 00:55:20;;;;;;;5.37;4.87;;;;;;;;;;5047227;28;20234;-86
2023/06/02 00:57:48;;;;;;;5.97;5.27;;;;;;;;;;5025148;28;20213;-85
2023/06/02 01:00:16;;;;;;;6.20;5.60;;;;;;;;;;5029436;28;20264;-86
2023/06/02 01:02:45;;;;;;;5.40;4.83;;;;;;;;;;5036318;28;20305;-86
2023/06/02 01:05:14;;;;;;;5.87;5.30;;;;;;;;;;5035935;28;20275;-85
2023/06/02 01:07:44;;;;;;;5.30;4.80;;;;;;;;;;5030290;28;20230;-85
2023/06/02 01:10:12;;;;;;;7.07;5.50;;;;;;;;;;5023305;28;20227;-86
2023/06/02 01:12:39;;;;;;;6.90;5.33;;;;;;;;;;5024287;28;20281;-86
2023/06/02 01:15:07;;;;;;;5.93;4.87;;;;;;;;;;5040128;28;20249;-86
2023/06/02 01:17:36;;;;;;;7.37;5.03;;;;;;;;;;5031545;28;20234;-86
2023/06/02 01:20:05;;;;;;;5.13;4.70;;;;;;;;;;5031522;28;20292;-86
2023/06/02 01:22:38;;;;;;;5.83;4.90;;;;;;;;;;5034672;28;20230;-85
2023/06/02 01:25:17;;;;;;;5.80;4.80;;;;;;;;;;5048116;28;20229;-86
2023/06/02 01:27:44;;;;;;;6.17;4.83;;;;;;;;;;5048482;28;20210;-86
2023/06/02 01:30:12;;;;;;;4.63;4.23;;;;;;;;;;5032235;28;20241;-85
2023/06/02 01:32:43;;;;;;;5.13;4.63;;;;;;;;;;5036106;28;20210;-86
2023/06/02 01:35:11;;;;;;;5.00;4.50;;;;;;;;;;5047563;28;20232;-86
2023/06/02 01:37:44;;;;;;;5.17;4.67;;;;;;;;;;5038866;28;20210;-86
2023/06/02 01:40:13;;;;;;;6.87;4.80;;;;;;;;;;5050966;28;20234;-86
2023/06/02 01:42:41;;;;;;;5.27;4.70;;;;;;;;;;5043589;28;20253;-86
2023/06/02 01:45:08;;;;;;;6.23;4.90;;;;;;;;;;5039726;28;20242;-86
2023/06/02 01:47:35;;;;;;;6.07;4.83;;;;;;;;;;5046773;28;20213;-87
2023/06/02 01:50:03;;;;;;;5.30;4.63;;;;;;;;;;5042640;28;20237;-86
2023/06/02 01:52:30;;;;;;;5.67;4.97;;;;;;;;;;5051906;28;20206;-87
2023/06/02 01:54:57;;;;;;;6.67;4.90;;;;;;;;;;5034341;28;20231;-86
2023/06/02 01:57:27;;;;;;;8.50;5.43;;;;;;;;;;5032049;28;20202;-87
2023/06/02 01:59:54;;;;;;;6.07;4.60;;;;;;;;;;5040736;28;20645;-86
2023/06/02 02:02:21;;;;;;;5.23;4.50;;;;;;;;;;5037087;28;20226;-86
2023/06/02 02:04:49;;;;;;;5.73;4.83;;;;;;;;;;5050932;28;20234;-87
2023/06/02 02:07:19;;;;;;;6.67;5.03;;;;;;;;;;5051608;28;20210;-86
2023/06/02 02:09:46;;;;;;;6.07;5.23;;;;;;;;;;5050969;28;20237;-86
2023/06/02 02:12:13;;;;;;;6.47;4.93;;;;;;;;;;5032416;28;20211;-86
2023/06/02 02:14:42;;;;;;;5.30;4.80;;;;;;;;;;5038482;28;20238;-87
2023/06/02 02:17:10;;;;;;;6.93;4.73;;;;;;;;;;5051623;28;20279;-87
2023/06/02 02:19:37;;;;;;;7.00;4.90;;;;;;;;;;5051330;28;20236;-86
2023/06/02 02:22:05;;;;;;;5.87;4.80;;;;;;;;;;5042974;28;20237;-87
2023/06/02 02:24:32;;;;;;;7.03;4.87;;;;;;;;;;5051225;28;20245;-86
2023/06/02 02:26:59;;;;;;;5.47;4.67;;;;;;;;;;5042192;28;20587;-86
2023/06/02 02:29:26;;;;;;;7.10;5.17;;;;;;;;;;5033068;28;20248;-86
2023/06/02 02:31:54;;;;;;;5.40;4.90;;;;;;;;;;5049798;28;20228;-86
2023/06/02 02:34:25;;;;;;;5.97;5.03;;;;;;;;;;5050455;28;20206;-86
2023/06/02 02:36:52;;;;;;;7.73;5.13;;;;;;;;;;5051833;28;20206;-86
2023/06/02 02:39:20;;;;;;;5.37;4.87;;;;;;;;;;5049797;28;20234;-87
2023/06/02 02:41:47;;;;;;;8.97;4.80;;;;;;;;;;5046989;28;20270;-87
2023/06/02 02:44:14;;;;;;;5.23;4.73;;;;;;;;;;5039682;28;20223;-86
2023/06/02 02:46:41;;;;;;;5.07;4.27;;;;;;;;;;5037613;28;20210;-86
2023/06/02 02:49:10;;;;;;;6.10;4.83;;;;;;;;;;5040999;28;20687;-86
2023/06/02 02:51:37;;;;;;;5.50;5.00;;;;;;;;;;5045937;28;20217;-87
2023/06/02 02:54:04;;;;;;;11.13;5.10;;;;;;;;;;5054159;28;20718;-86
2023/06/02 02:56:32;;;;;;;5.80;4.70;;;;;;;;;;5045931;28;20233;-86
2023/06/02 02:58:59;;;;;;;7.13;5.27;;;;;;;;;;5046564;28;20265;-86
2023/06/02 03:01:26;;;;;;;7.33;5.00;;;;;;;;;;5045745;28;20230;-86
2023/06/02 03:03:53;;;;;;;5.93;5.00;;;;;;;;;;5047198;28;20214;-86
2023/06/02 03:06:22;;;;;;;5.17;4.60;;;;;;;;;;5045709;28;20233;-86
2023/06/02 03:08:49;;;;;;;5.60;4.80;;;;;;;;;;5037087;28;20223;-86
2023/06/02 03:11:16;;;;;;;7.33;5.07;;;;;;;;;;5034098;28;20708;-85
2023/06/02 03:13:43;;;;;;;9.33;4.90;;;;;;;;;;5050193;28;20210;-86
2023/06/02 03:16:10;;;;;;;6.33;4.87;;;;;;;;;;5043155;28;20230;-86
2023/06/02 03:18:38;;;;;;;6.93;5.30;;;;;;;;;;5040437;28;20715;-86
2023/06/02 03:21:06;;;;;;;6.57;5.30;;;;;;;;;;5052878;28;20237;-86
2023/06/02 03:23:36;;;;;;;6.77;5.10;;;;;;;;;;5042155;28;20227;-86
2023/06/02 03:26:03;;;;;;;7.00;5.57;;;;;;;;;;5049660;28;20230;-85
2023/06/02 03:28:30;;;;;;;5.60;5.10;;;;;;;;;;5042567;28;20241;-86
2023/06/02 03:30:57;;;;;;;10.17;5.60;;;;;;;;;;5033530;28;20231;-86
2023/06/02 03:33:24;;;;;;;5.80;5.20;;;;;;;;;;5046619;28;20205;-86
2023/06/02 03:35:51;;;;;;;6.03;5.00;;;;;;;;;;5038890;28;20237;-87
2023/06/02 03:38:18;;;;;;;10.03;4.97;;;;;;;;;;5046020;28;20255;-87
2023/06/02 03:40:47;;;;;;;5.63;5.00;;;;;;;;;;5053283;28;20715;-86
2023/06/02 03:43:14;;;;;;;7.73;4.90;;;;;;;;;;5050320;28;20218;-87
2023/06/02 03:45:41;;;;;;;7.77;5.30;;;;;;;;;;5046102;28;20267;-87
2023/06/02 03:48:08;;;;;;;6.87;5.13;;;;;;;;;;5046349;28;20210;-88
2023/06/02 03:50:36;;;;;;;7.43;5.50;;;;;;;;;;5054436;28;20234;-87
2023/06/02 03:53:03;;;;;;;8.50;5.17;;;;;;;;;;5045281;28;20212;-88
2023/06/02 03:55:30;;;;;;;7.30;5.43;;;;;;;;;;5034674;28;20230;-85
2023/06/02 03:57:59;;;;;;;5.93;5.33;;;;;;;;;;5034328;28;20234;-87
2023/06/02 04:00:27;;;;;;;5.67;5.07;;;;;;;;;;5042420;28;20250;-87
2023/06/02 04:02:55;;;;;;;5.83;5.17;;;;;;;;;;5041846;28;20699;-86
2023/06/02 04:05:22;;;;;;;9.63;5.60;;;;;;;;;;5027935;28;20223;-87
2023/06/02 04:07:49;;;;;;;10.83;8.17;;;;;;;;;;5050176;28;20634;-87
2023/06/02 04:10:16;;;;;;;5.93;5.33;;;;;;;;;;5053292;28;20348;-88
2023/06/02 04:12:43;;;;;;;6.83;5.90;;;;;;;;;;5039976;28;20206;-88
2023/06/02 04:15:12;;;;;;;6.33;5.17;;;;;;;;;;5043644;28;20715;-87
2023/06/02 04:17:39;;;;;;;6.00;5.40;;;;;;;;;;5053677;28;20217;-86
2023/06/02 04:20:07;;;;;;;9.40;5.73;;;;;;;;;;5034633;28;20235;-86
2023/06/02 04:22:35;;;;;;;7.87;6.07;;;;;;;;;;5041797;28;20261;-86
2023/06/02 04:25:02;;;;;;;7.63;5.97;;;;;;;;;;5041375;28;20234;-87
2023/06/02 04:27:29;;;;;;;7.97;6.10;;;;;;;;;;5038897;28;20221;-87
2023/06/02 04:29:56;;;;;;;9.67;5.97;;;;;;;;;;5045104;28;20237;-87
2023/06/02 04:32:25;;;;;;;7.30;6.03;;;;;;;;;;5042489;28;20203;-87
2023/06/02 04:34:52;;;;;;;9.40;5.53;;;;;;;;;;5049445;28;20229;-87
2023/06/02 04:37:20;;;;;;;5.80;5.00;;;;;;;;;;5043566;28;20213;-87
2023/06/02 04:39:51;;;;;;;6.83;5.80;;;;;;;;;;5047753;28;20284;-87
2023/06/02 04:42:18;;;;;;;7.47;5.73;;;;;;;;;;5033776;28;20219;-86
2023/06/02 04:44:47;;;;;;;8.93;5.90;;;;;;;;;;5039690;28;20233;-87
2023/06/02 04:47:14;;;;;;;9.40;5.93;;;;;;;;;;5042720;28;20260;-87
2023/06/02 04:49:42;;;;;;;7.67;5.63;;;;;;;;;;5032452;28;20234;-87
2023/06/02 04:52:09;;;;;;;9.63;6.33;;;;;;;;;;5050602;28;20289;-88
2023/06/02 04:54:37;;;;;;;7.30;6.10;;;;;;;;;;5042020;28;20883;-87
2023/06/02 04:57:05;;;;;;;11.63;6.40;;;;;;;;;;5033394;28;20206;-88
2023/06/02 04:59:33;;;;;;;8.63;6.13;;;;;;;;;;5031989;28;20701;-87
2023/06/02 05:02:00;;;;;;;6.90;5.67;;;;;;;;;;5015962;28;20258;-87
2023/06/02 05:04:27;;;;;;;6.57;5.73;;;;;;;;;;5039411;28;20309;-86
2023/06/02 05:06:56;;;;;;;9.80;6.33;;;;;;;;;;5040926;28;20214;-87
2023/06/02 05:09:23;;;;;;;7.80;5.47;;;;;;;;;;5035241;28;20226;-88
2023/06/02 05:11:50;;;;;;;6.07;5.23;;;;;;;;;;5043911;28;20265;-88
2023/06/02 05:14:20;;;;;;;10.37;5.80;;;;;;;;;;5042779;28;20211;-87
2023/06/02 05:16:47;;;;;;;10.13;6.33;;;;;;;;;;5042834;28;20646;-88
2023/06/02 05:19:14;;;;;;;11.30;5.80;;;;;;;;;;5039103;28;20237;-86
2023/06/02 05:21:41;;;;;;;9.37;5.87;;;;;;;;;;5045390;28;20214;-87
2023/06/02 05:24:09;;;;;;;8.03;6.10;;;;;;;;;;5042691;28;20222;-86
2023/06/02 05:26:38;;;;;;;8.67;5.73;;;;;;;;;;5045828;28;20226;-87
2023/06/02 05:29:05;;;;;;;8.57;5.83;;;;;;;;;;5048553;28;20226;-88
2023/06/02 05:31:33;;;;;;;9.37;5.80;;;;;;;;;;5032166;28;20234;-88
2023/06/02 05:34:00;;;;;;;8.80;5.33;;;;;;;;;;5033493;28;20203;-88
2023/06/02 05:36:27;;;;;;;9.60;5.67;;;;;;;;;;5039463;28;20226;-86
2023/06/02 05:38:54;;;;;;;10.53;5.50;;;;;;;;;;5045723;28;20237;-86
2023/06/02 05:41:24;;;;;;;12.13;6.07;;;;;;;;;;5040505;28;20230;-86
2023/06/02 05:43:51;;;;;;;10.17;5.60;;;;;;;;;;5042016;28;20230;-85
2023/06/02 05:46:18;;;;;;;9.53;5.67;;;;;;;;;;5041852;28;20245;-87
2023/06/02 05:48:45;;;;;;;8.83;6.30;;;;;;;;;;5045363;28;20234;-87
2023/06/02 05:51:13;;;;;;;8.47;5.67;;;;;;;;;;5041143;28;20250;-88
2023/06/02 05:53:40;;;;;;;8.63;5.37;;;;;;;;;;5038930;28;20203;-87
2023/06/02 05:56:08;;;;;;;6.77;5.27;;;;;;;;;;5049724;28;20236;-88
2023/06/02 05:58:39;;;;;;;9.73;5.67;;;;;;;;;;5044809;28;20240;-87
2023/06/02 06:01:06;;;;;;;6.03;4.90;;;;;;;;;;5043608;28;20716;-87
2023/06/02 06:03:33;;;;;;;11.40;5.53;;;;;;;;;;5050502;28;20711;-87
2023/06/02 06:06:01;;;;;;;6.87;5.53;;;;;;;;;;5044156;28;20251;-88
2023/06/02 06:08:28;;;;;;;8.03;5.30;;;;;;;;;;5040765;28;20261;-87
2023/06/02 06:10:55;;;;;;;6.87;4.83;;;;;;;;;;5040561;28;20241;-87
2023/06/02 06:13:22;;;;;;;8.60;5.37;;;;;;;;;;5049752;28;20574;-87
2023/06/02 06:15:51;;;;;;;6.93;5.37;;;;;;;;;;5049283;28;20241;-88
2023/06/02 06:18:19;;;;;;;7.50;5.23;;;;;;;;;;5049521;28;20210;-86
2023/06/02 06:20:46;;;;;;;9.33;5.60;;;;;;;;;;5046962;28;20793;-85
2023/06/02 06:23:14;;;;;;;5.43;4.73;;;;;;;;;;5055301;28;20603;-87
2023/06/02 06:25:41;;;;;;;7.83;4.80;;;;;;;;;;5046272;28;20716;-86
2023/06/02 06:28:08;;;;;;;9.53;5.03;;;;;;;;;;5047852;28;20217;-87
2023/06/02 06:30:35;;;;;;;5.90;5.10;;;;;;;;;;5052520;28;20731;-87
2023/06/02 06:33:03;;;;;;;8.13;5.33;;;;;;;;;;5053185;28;20680;-87
2023/06/02 06:35:30;;;;;;;9.83;5.27;;;;;;;;;;5040960;28;20230;-88
2023/06/02 06:37:57;;;;;;;6.30;4.27;;;;;;;;;;5055060;28;20229;-86
2023/06/02 06:40:25;;;;;;;7.47;4.47;;;;;;;;;;5051279;28;20249;-89
2023/06/02 06:42:52;;;;;;;9.37;5.13;;;;;;;;;;5051942;28;20233;-88
2023/06/02 06:45:19;;;;;;;7.27;4.70;;;;;;;;;;5055617;28;20698;-87
2023/06/02 06:47:46;;;;;;;7.07;4.93;;;;;;;;;;5043458;28;20210;-88
2023/06/02 06:50:15;;;;;;;8.53;5.10;;;;;;;;;;5056814;28;20234;-88
2023/06/02 06:52:42;;;;;;;8.23;5.27;;;;;;;;;;5051364;28;20224;-89
2023/06/02 06:55:10;;;;;;;6.77;4.80;;;;;;;;;;5057591;28;20233;-88
2023/06/02 06:57:37;;;;;;;7.57;4.40;;;;;;;;;;5050669;28;20206;-88
2023/06/02 07:00:05;;;;;;;5.37;4.17;;;;;;;;;;5055490;28;20245;-89
2023/06/02 07:02:32;;;;;;;9.55;4.78;;;;;;;;;;5056204;28;20751;-89
2023/06/02 07:04:59;;;;;;;5.20;4.32;;;;;;;;;;5041546;28;20231;-87
2023/06/02 07:07:28;;;;;;;8.73;4.72;;;;;;;;;;5057233;28;20583;-87
2023/06/02 07:09:55;;;;;;;6.65;4.15;;;;;;;;;;5046069;28;20245;-86
2023/06/02 07:12:22;;;;;;;7.70;4.57;;;;;;;;;;5035052;28;20215;-87
2023/06/02 07:14:50;;;;;;;6.53;4.40;;;;;;;;;;5043258;28;20234;-86
2023/06/02 07:17:17;;;;;;;5.97;4.05;;;;;;;;;;5055823;28;20238;-87
2023/06/02 07:19:44;;;;;;;6.65;4.40;;;;;;;;;;5054986;28;20241;-87
2023/06/02 07:22:12;;;;;;;5.85;4.03;;;;;;;;;;5046027;28;20206;-87
2023/06/02 07:24:40;;;;;;;4.90;4.32;;;;;;;;;;5054804;28;20237;-87
2023/06/02 07:27:07;;;;;;;7.47;4.20;;;;;;;;;;5054417;28;20209;-87
2023/06/02 07:29:34;;;;;;;7.50;4.38;;;;;;;;;;5046776;28;20240;-88
2023/06/02 07:32:01;;;;;;;6.93;4.32;;;;;;;;;;5047364;28;20211;-87
2023/06/02 07:34:28;;;;;;;7.32;4.22;;;;;;;;;;5045787;28;20221;-87
2023/06/02 07:36:55;;;;;;;7.55;4.55;;;;;;;;;;5056037;28;20706;-88
2023/06/02 07:39:23;;;;;;;7.65;4.68;;;;;;;;;;5045543;28;20245;-86
2023/06/02 07:41:51;;;;;;;7.05;4.18;;;;;;;;;;5055345;28;20215;-88
2023/06/02 07:44:18;;;;;;;5.07;3.85;;;;;;;;;;5050135;28;20224;-87
2023/06/02 07:46:45;;;;;;;6.75;4.22;;;;;;;;;;5054266;28;20206;-87
2023/06/02 07:49:12;;;;;;;8.63;4.30;;;;;;;;;;5045869;28;20284;-86
2023/06/02 07:51:40;;;;;;;5.35;3.83;;;;;;;;;;5042893;28;20206;-88
2023/06/02 07:54:07;;;;;;;6.70;4.00;;;;;;;;;;5046815;28;20238;-87
2023/06/02 07:56:34;;;;;;;7.55;3.85;;;;;;;;;;5054753;28;20226;-87
2023/06/02 07:59:02;;;;;;;6.68;4.15;;;;;;;;;;5055563;28;20218;-87
2023/06/02 08:01:29;;;;;;;5.70;3.63;;;;;;;;;;5047240;28;20699;-87
2023/06/02 08:03:56;;;;;;;9.05;4.05;;;;;;;;;;5054885;28;20241;-87
2023/06/02 08:06:23;;;;;;;4.78;3.72;;;;;;;;;;5054255;28;20643;-87
2023/06/02 08:08:50;;;;;;;6.60;4.45;;;;;;;;;;5045072;28;20226;-86
2023/06/02 08:11:18;;;;;;;5.32;3.97;;;;;;;;;;5052527;28;20236;-88
2023/06/02 08:13:45;;;;;;;5.22;4.25;;;;;;;;;;5045469;28;20210;-88
2023/06/02 08:16:14;;;;;;;6.07;3.78;;;;;;;;;;5051786;28;20805;-88
2023/06/02 08:18:41;;;;;;;6.60;3.90;;;;;;;;;;5049261;28;20226;-86
2023/06/02 08:21:08;;;;;;;5.65;3.83;;;;;;;;;;5051826;28;20233;-88
2023/06/02 08:23:35;;;;;;;7.03;3.95;;;;;;;;;;5055137;28;20226;-88
2023/06/02 08:26:02;;;;;;;3.75;3.35;;;;;;;;;;5054682;28;20226;-87
2023/06/02 08:28:33;;;;;;;5.88;4.15;;;;;;;;;;5045820;28;20339;-86
2023/06/02 08:31:00;;;;;;;6.82;4.18;;;;;;;;;;5039422;28;20239;-87
2023/06/02 08:33:29;;;;;;;6.00;3.92;;;;;;;;;;5044729;28;20195;-86
2023/06/02 08:35:57;;;;;;;5.88;4.10;;;;;;;;;;5045481;28;20226;-87
2023/06/02 08:38:25;;;;;;;9.00;4.13;;;;;;;;;;5053097;28;20308;-87
2023/06/02 08:40:53;;;;;;;5.78;4.13;;;;;;;;;;5043303;28;20227;-87
2023/06/02 08:43:20;;;;;;;6.32;4.05;;;;;;;;;;5045280;28;20231;-87
2023/06/02 08:45:48;;;;;;;4.63;3.63;;;;;;;;;;5045555;28;20222;-87
2023/06/02 08:48:16;;;;;;;10.13;4.00;;;;;;;;;;5055061;28;20206;-87
2023/06/02 08:50:47;;;;;;;4.72;4.03;;;;;;;;;;5050594;28;20699;-87
2023/06/02 08:53:16;;;;;;;5.80;3.83;;;;;;;;;;5046663;28;20610;-87
2023/06/02 08:55:43;;;;;;;7.75;3.65;;;;;;;;;;5045366;28;20226;-87
2023/06/02 08:58:10;;;;;;;6.57;3.72;;;;;;;;;;5046251;28;20206;-87
2023/06/02 09:00:37;;;;;;;5.85;4.45;;;;;;;;;;5037878;28;20249;-87
2023/06/02 09:03:04;;;;;;;5.07;3.55;;;;;;;;;;5045756;28;20202;-87
2023/06/02 09:05:32;;;;;;;5.47;3.83;;;;;;;;;;5044674;28;20283;-88
2023/06/02 09:08:10;;;;;;;5.15;3.78;;;;;;;;;;5045055;28;20198;-89
2023/06/02 09:10:40;;;;;;;6.63;3.78;;;;;;;;;;5044001;28;20238;-89
2023/06/02 09:13:07;;;;;;;4.28;3.60;;;;;;;;;;5052240;28;20301;-89
2023/06/02 09:15:36;;;;;;;5.10;3.55;;;;;;;;;;5051709;28;20229;-89
2023/06/02 09:18:11;;;;;;;4.82;3.70;;;;;;;;;;5045194;28;20590;-87
2023/06/02 09:20:39;;;;;;;5.63;3.80;;;;;;;;;;5047043;28;20785;-88
2023/06/02 09:23:06;;;;;;;5.15;3.38;;;;;;;;;;5046813;28;20202;-86
2023/06/02 09:25:38;;;;;;;3.78;3.30;;;;;;;;;;5041901;28;20777;-88
2023/06/02 09:28:05;;;;;;;5.15;3.30;;;;;;;;;;5043839;28;20611;-86
2023/06/02 09:30:32;;;;;;;5.65;3.45;;;;;;;;;;5043521;28;20234;-88
2023/06/02 09:33:00;;;;;;;4.75;3.03;;;;;;;;;;5051646;28;20604;-88
2023/06/02 09:35:34;;;;;;;4.05;3.22;;;;;;;;;;5049768;28;20733;-87
2023/06/02 09:38:01;;;;;;;5.13;3.75;;;;;;;;;;5044465;28;20238;-87
2023/06/02 09:40:29;;;;;;;6.30;3.47;;;;;;;;;;5046459;28;20238;-87
2023/06/02 09:42:57;;;;;;;6.70;3.40;;;;;;;;;;5039631;28;20234;-87
2023/06/02 09:45:24;;;;;;;3.25;2.70;;;;;;;;;;5046592;28;20699;-88
2023/06/02 09:47:51;;;;;;;5.20;3.20;;;;;;;;;;5040345;28;20206;-88
2023/06/02 09:50:36;;;;;;;5.80;3.35;;;;;;;;;;5040540;28;20234;-88
2023/06/02 09:53:04;;;;;;;5.18;3.30;;;;;;;;;;5046995;28;20228;-88
2023/06/02 09:55:33;;;;;;;5.65;3.10;;;;;;;;;;5042126;28;20324;-89
2023/06/02 09:58:01;;;;;;;4.35;2.80;;;;;;;;;;5050867;28;20614;-87
2023/06/02 10:00:29;;;;;;;4.53;2.70;;;;;;;;;;5047006;28;20230;-87
2023/06/02 10:02:56;;;;;;;4.85;3.45;;;;;;;;;;5042834;28;20239;-87
2023/06/02 10:05:23;;;;;;;3.65;3.20;;;;;;;;;;5040662;28;20828;-87
2023/06/02 10:07:57;;;;;;;7.03;3.25;;;;;;;;;;5039393;28;20209;-89
2023/06/02 10:10:32;;;;;;;3.67;3.10;;;;;;;;;;5047165;28;20233;-90
2023/06/02 10:13:17;;;;;;;6.00;3.40;;;;;;;;;;5039591;28;20210;-90
2023/06/02 10:16:02;;;;;;;4.38;3.30;;;;;;;;;;5036174;28;20229;-89
2023/06/02 10:18:44;;;;;;;6.40;3.40;;;;;;;;;;5052507;28;20229;-90
2023/06/02 10:21:17;;;;;;;4.90;2.63;;;;;;;;;;5031697;28;20227;-90
2023/06/02 10:23:49;;;;;;;5.00;2.92;;;;;;;;;;5038228;28;20218;-90
2023/06/02 10:26:24;;;;;;;5.28;2.90;;;;;;;;;;5043864;28;20225;-90
2023/06/02 10:28:54;;;;;;;8.00;3.05;;;;;;;;;;5049396;28;20210;-90
2023/06/02 10:31:31;;;;;;;5.03;3.03;;;;;;;;;;5033813;28;20235;-91
2023/06/02 10:34:00;;;;;;;4.32;2.90;;;;;;;;;;5044825;28;20265;-90
2023/06/02 10:36:27;;;;;;;6.43;3.08;;;;;;;;;;5035925;28;20242;-90
2023/06/02 10:38:56;;;;;;;4.82;2.88;;;;;;;;;;5050488;28;20237;-85
2023/06/02 10:41:38;;;;;;;5.55;3.03;;;;;;;;;;5032925;28;20250;-85
2023/06/02 10:44:22;;;;;;;5.05;2.83;;;;;;;;;;5049312;28;20248;-87
2023/06/02 10:47:10;;;;;;;5.10;2.50;;;;;;;;;;5035594;28;20672;-88
2023/06/02 10:49:53;;;;;;;12.57;3.28;;;;;;;;;;5041809;28;20241;-88
2023/06/02 10:52:20;;;;;;;4.35;2.67;;;;;;;;;;5044433;28;20562;-87
2023/06/02 10:54:55;;;;;;;6.18;2.60;;;;;;;;;;5044265;28;20304;-84
2023/06/02 10:57:37;;;;;;;5.35;3.03;;;;;;;;;;5052977;28;20205;-81
2023/06/02 11:00:24;;;;;;;2.80;2.50;;;;;;;;;;5052234;28;20609;-83
2023/06/02 11:02:53;;;;;;;3.03;2.25;;;;;;;;;;5045057;28;20206;-85
2023/06/02 11:05:26;;;;;;;4.30;2.53;;;;;;;;;;5053768;28;20726;-84
2023/06/02 11:08:08;;;;;;;3.75;2.50;;;;;;;;;;5047356;28;20668;-84
2023/06/02 11:10:42;;;;;;;3.60;2.47;;;;;;;;;;5043555;28;20229;-84
2023/06/02 11:13:09;;;;;;;2.70;2.47;;;;;;;;;;5043287;28;20206;-84
2023/06/02 11:15:36;;;;;;;5.85;2.97;;;;;;;;;;5043494;28;20226;-84
2023/06/02 11:18:25;;;;;;;8.52;2.80;;;;;;;;;;5053013;28;20571;-84
2023/06/02 11:20:54;;;;;;;4.25;2.75;;;;;;;;;;5037817;28;20308;-84
2023/06/02 11:23:21;;;;;;;5.25;2.00;;;;;;;;;;5041408;28;20563;-84
2023/06/02 11:25:49;;;;;;;4.80;2.28;;;;;;;;;;5051828;28;20722;-84
2023/06/02 11:28:20;;;;;;;3.10;2.22;;;;;;;;;;5052940;28;20210;-82
2023/06/02 11:30:47;;;;;;;5.72;2.08;;;;;;;;;;5036781;28;20229;-82
2023/06/02 11:33:15;;;;;;;4.00;2.35;;;;;;;;;;5049009;28;20488;-81
2023/06/02 11:35:46;;;;;;;4.15;2.40;;;;;;;;;;5051342;28;20230;-83
2023/06/02 11:38:16;;;;;;;4.90;2.75;;;;;;;;;;5052187;28;20202;-84
2023/06/02 11:40:43;;;;;;;4.55;2.45;;;;;;;;;;5048535;28;20230;-85
2023/06/02 11:43:10;;;;;;;4.25;2.30;;;;;;;;;;5040562;28;20864;-81
2023/06/02 11:45:38;;;;;;;6.22;2.75;;;;;;;;;;5030912;28;20330;-82
2023/06/02 11:48:07;;;;;;;3.60;2.25;;;;;;;;;;5032193;28;20238;-84
2023/06/02 11:50:36;;;;;;;3.20;2.35;;;;;;;;;;5032234;28;20230;-83
2023/06/02 11:53:03;;;;;;;3.88;2.90;;;;;;;;;;5033514;28;20676;-81
2023/06/02 11:55:31;;;;;;;3.08;1.98;;;;;;;;;;5034825;28;20262;-83
2023/06/02 11:58:17;;;;;;;3.45;2.03;;;;;;;;;;5052458;28;20206;-84
2023/06/02 12:00:44;;;;;;;4.68;2.50;;;;;;;;;;5046354;28;20229;-86
2023/06/02 12:03:12;;;;;;;2.75;2.00;;;;;;;;;;5051249;28;20209;-86
2023/06/02 12:05:43;;;;;;;4.60;2.33;;;;;;;;;;5042855;28;20719;-86
2023/06/02 12:08:20;;;;;;;3.58;2.47;;;;;;;;;;5037576;28;20249;-85
2023/06/02 12:10:47;;;;;;;3.25;2.17;;;;;;;;;;5039687;28;20321;-86
2023/06/02 12:13:23;;;;;;;3.50;2.13;;;;;;;;;;5047131;28;20202;-82
2023/06/02 12:15:50;;;;;;;4.22;2.30;;;;;;;;;;5035361;28;20311;-84
2023/06/02 12:18:28;;;;;;;4.40;2.60;;;;;;;;;;5043527;28;20206;-82
2023/06/02 12:20:56;;;;;;;3.08;2.28;;;;;;;;;;5020998;28;20253;-84
2023/06/02 12:23:23;;;;;;;7.25;2.40;;;;;;;;;;5050950;28;20198;-85
2023/06/02 12:25:58;;;;;;;6.80;2.38;;;;;;;;;;5039322;28;20235;-86
2023/06/02 12:28:25;;;;;;;4.22;2.17;;;;;;;;;;5040557;28;20226;-81
2023/06/02 12:30:52;;;;;;;2.97;2.10;;;;;;;;;;5051190;28;20226;-85
2023/06/02 12:33:19;;;;;;;2.97;2.28;;;;;;;;;;5044390;28;20213;-85
2023/06/02 12:35:46;;;;;;;2.85;2.42;;;;;;;;;;5050633;28;20592;-85
2023/06/02 12:38:15;;;;;;;2.33;2.03;;;;;;;;;;5051224;28;20208;-84
2023/06/02 12:40:42;;;;;;;3.70;2.20;;;;;;;;;;5050814;28;20257;-85
2023/06/02 12:43:09;;;;;;;3.13;2.25;;;;;;;;;;5047839;28;20207;-86
2023/06/02 12:45:36;;;;;;;6.82;2.40;;;;;;;;;;5047085;28;20238;-85
2023/06/02 12:48:04;;;;;;;2.85;2.00;;;;;;;;;;5037166;28;20206;-85
2023/06/02 12:50:31;;;;;;;3.15;2.05;;;;;;;;;;5042596;28;20234;-83
2023/06/02 12:52:58;;;;;;;3.92;2.30;;;;;;;;;;5048357;28;20203;-83
2023/06/02 12:55:27;;;;;;;5.97;2.33;;;;;;;;;;5042033;28;20233;-83
2023/06/02 12:57:55;;;;;;;4.90;2.42;;;;;;;;;;5039796;28;20226;-84
2023/06/02 13:00:22;;;;;;;4.05;2.20;;;;;;;;;;5044577;28;20703;-85
2023/06/02 13:02:49;;;;;;;7.25;2.00;;;;;;;;;;5042690;28;20225;-86
2023/06/02 13:05:16;;;;;;;4.43;2.00;;;;;;;;;;5041842;28;20249;-84
2023/06/02 13:07:43;;;;;;;3.83;2.10;;;;;;;;;;5040390;28;20210;-85
2023/06/02 13:10:11;;;;;;;5.38;2.03;;;;;;;;;;5045161;28;20242;-86
2023/06/02 13:12:40;;;;;;;4.25;2.75;;;;;;;;;;5048631;28;20206;-85
2023/06/02 13:15:08;;;;;;;2.92;2.25;;;;;;;;;;5039284;28;20355;-85
2023/06/02 13:17:35;;;;;;;2.10;1.55;;;;;;;;;;5048614;28;20202;-84
2023/06/02 13:20:03;;;;;;;3.70;1.73;;;;;;;;;;5042979;28;20700;-84
2023/06/02 13:22:30;;;;;;;4.05;2.35;;;;;;;;;;5042780;28;20260;-85
2023/06/02 13:24:58;;;;;;;5.32;2.00;;;;;;;;;;5047306;28;20229;-86
2023/06/02 13:27:25;;;;;;;2.78;1.90;;;;;;;;;;5042871;28;20198;-84
2023/06/02 13:29:54;;;;;;;4.30;2.17;;;;;;;;;;5046759;28;20234;-83
2023/06/02 13:32:21;;;;;;;5.93;2.25;;;;;;;;;;5039612;28;20213;-85
2023/06/02 13:34:55;;;;;;;2.40;2.00;;;;;;;;;;5040694;28;20222;-82
2023/06/02 13:37:22;;;;;;;3.63;2.30;;;;;;;;;;5050632;28;20197;-86
2023/06/02 13:39:49;;;;;;;7.07;2.50;;;;;;;;;;5029054;28;20235;-84
2023/06/02 13:42:16;;;;;;;4.03;2.28;;;;;;;;;;5037451;28;20256;-83
2023/06/02 13:44:43;;;;;;;2.63;2.10;;;;;;;;;;5033194;28;20230;-85
2023/06/02 13:47:12;;;;;;;2.10;1.90;;;;;;;;;;5050221;28;20664;-84
2023/06/02 13:49:39;;;;;;;2.80;1.67;;;;;;;;;;5049733;28;20738;-84
2023/06/02 13:52:06;;;;;;;4.60;2.55;;;;;;;;;;5050285;28;20202;-84
2023/06/02 13:54:33;;;;;;;6.22;2.72;;;;;;;;;;5040261;28;20234;-82
2023/06/02 13:57:01;;;;;;;4.20;2.05;;;;;;;;;;5041708;28;20206;-83
2023/06/02 13:59:28;;;;;;;4.35;2.00;;;;;;;;;;5045928;28;20231;-84
2023/06/02 14:01:56;;;;;;;5.15;2.17;;;;;;;;;;5042429;28;20206;-84
2023/06/02 14:04:25;;;;;;;6.70;2.10;;;;;;;;;;5037199;28;20211;-83
2023/06/02 14:06:52;;;;;;;5.30;2.35;;;;;;;;;;5047055;28;20268;-83
2023/06/02 14:09:19;;;;;;;5.95;2.53;;;;;;;;;;5042089;28;20584;-80
2023/06/02 14:11:46;;;;;;;5.38;2.30;;;;;;;;;;5039047;28;20643;-82
2023/06/02 14:14:14;;;;;;;3.03;1.55;;;;;;;;;;5047760;28;20206;-83
2023/06/02 14:16:41;;;;;;;5.22;2.05;;;;;;;;;;5039892;28;20767;-84
2023/06/02 14:19:08;;;;;;;3.90;1.90;;;;;;;;;;5038233;28;20254;-85
2023/06/02 14:21:36;;;;;;;3.60;2.15;;;;;;;;;;5035116;28;20230;-86
2023/06/02 14:24:04;;;;;;;5.00;2.38;;;;;;;;;;5049090;28;20209;-85
2023/06/02 14:26:31;;;;;;;3.75;2.15;;;;;;;;;;5044462;28;20316;-84
2023/06/02 14:28:58;;;;;;;9.02;2.13;;;;;;;;;;5054067;28;20226;-85
2023/06/02 14:31:25;;;;;;;4.07;2.30;;;;;;;;;;5053263;28;20276;-86
2023/06/02 14:33:52;;;;;;;7.22;2.50;;;;;;;;;;5045305;28;20215;-85
2023/06/02 14:36:19;;;;;;;7.32;2.58;;;;;;;;;;5044749;28;20221;-85
2023/06/02 14:38:48;;;;;;;5.10;2.17;;;;;;;;;;5053049;28;20246;-85
2023/06/02 14:41:15;;;;;;;5.03;2.00;;;;;;;;;;5053228;28;20249;-82
2023/06/02 14:43:42;;;;;;;8.40;2.20;;;;;;;;;;5053538;28;20217;-84
2023/06/02 14:46:09;;;;;;;5.05;1.90;;;;;;;;;;5035562;28;20221;-82
2023/06/02 14:48:36;;;;;;;4.07;2.10;;;;;;;;;;5042606;28;20333;-82
2023/06/02 14:51:05;;;;;;;2.65;1.65;;;;;;;;;;5047530;28;20234;-83